createdAt,value
2018-11-28T00:00:54.117Z,-3.18
2018-11-28T00:01:54.124Z,-3.33
2018-11-28T00:02:54.124Z,-3.26
2018-11-28T00:03:54.082Z,-3.25
2018-11-28T00:04:54.074Z,-3.29
2018-11-28T00:05:54.064Z,-3.33
2018-11-28T00:06:54.049Z,-3.35
2018-11-28T00:07:54.050Z,-3.38
2018-11-28T00:08:54.079Z,-3.32
2018-11-28T00:09:54.017Z,-3.36
2018-11-28T00:10:54.008Z,-3.43
2018-11-28T00:11:53.996Z,-3.51
2018-11-28T00:12:53.984Z,-3.50
2018-11-28T00:13:53.985Z,-3.51
2018-11-28T00:14:54.011Z,-3.64
2018-11-28T00:15:53.953Z,-3.60
2018-11-28T00:16:53.941Z,-3.57
2018-11-28T00:17:53.930Z,-3.62
2018-11-28T00:18:53.919Z,-3.64
2018-11-28T00:19:53.918Z,-3.65
2018-11-28T00:20:53.911Z,-3.72
2018-11-28T00:21:53.889Z,-3.71
2018-11-28T00:22:53.877Z,-3.65
2018-11-28T00:23:53.866Z,-3.70
2018-11-28T00:24:53.855Z,-3.65
2018-11-28T00:25:58.720Z,-3.65
2018-11-28T00:26:54.832Z,-3.71
2018-11-28T00:27:53.822Z,-3.80
2018-11-28T00:28:53.813Z,-3.68
2018-11-28T00:29:53.801Z,-3.81
2018-11-28T00:30:53.794Z,-3.83
2018-11-28T00:31:53.834Z,-3.93
2018-11-28T00:32:53.769Z,-3.89
2018-11-28T00:33:53.759Z,-3.99
2018-11-28T00:34:53.750Z,-4.01
2018-11-28T00:35:53.737Z,-4.07
2018-11-28T00:36:53.726Z,-4.04
2018-11-28T00:37:53.738Z,-4.07
2018-11-28T00:38:53.709Z,-3.99
2018-11-28T00:39:53.695Z,-3.93
2018-11-28T00:40:53.684Z,-3.99
2018-11-28T00:41:53.673Z,-4.01
2018-11-28T00:42:53.676Z,-3.98
2018-11-28T00:43:53.676Z,-3.98
2018-11-28T00:44:53.639Z,-4.01
2018-11-28T00:45:53.628Z,-3.89
2018-11-28T00:46:53.619Z,-3.87
2018-11-28T00:47:53.610Z,-3.87
2018-11-28T00:48:53.598Z,-3.90
2018-11-28T00:49:53.607Z,-3.90
2018-11-28T00:50:53.575Z,-3.83
2018-11-28T00:51:53.565Z,-3.89
2018-11-28T00:52:53.554Z,-3.89
2018-11-28T00:53:53.585Z,-3.90
2018-11-28T00:54:53.533Z,-3.86
2018-11-28T00:55:53.532Z,-3.87
2018-11-28T00:56:53.512Z,-3.87
2018-11-28T00:57:53.499Z,-3.90
2018-11-28T00:58:53.490Z,-3.84
2018-11-28T00:59:53.509Z,-3.87
2018-11-28T01:00:53.468Z,-3.84
2018-11-28T01:01:53.465Z,-3.84
2018-11-28T01:02:53.446Z,-3.90
2018-11-28T01:03:53.436Z,-3.87
2018-11-28T01:04:53.425Z,-3.93
2018-11-28T01:05:53.457Z,-4.01
2018-11-28T01:06:53.403Z,-3.93
2018-11-28T01:07:53.399Z,-3.99
2018-11-28T01:08:53.381Z,-3.96
2018-11-28T01:09:53.371Z,-3.96
2018-11-28T01:10:53.359Z,-3.94
2018-11-28T01:11:53.361Z,-3.99
2018-11-28T01:12:53.341Z,-3.94
2018-11-28T01:13:53.335Z,-4.09
2018-11-28T01:14:53.317Z,-4.04
2018-11-28T01:15:53.308Z,-4.09
2018-11-28T01:16:53.318Z,-4.14
2018-11-28T01:17:53.285Z,-4.20
2018-11-28T01:18:53.274Z,-4.12
2018-11-28T01:19:53.273Z,-4.25
2018-11-28T01:20:53.253Z,-4.22
2018-11-28T01:21:53.243Z,-4.26
2018-11-28T01:22:53.245Z,-4.23
2018-11-28T01:23:53.221Z,-4.22
2018-11-28T01:24:53.209Z,-4.29
2018-11-28T01:25:53.222Z,-4.26
2018-11-28T01:26:53.189Z,-4.23
2018-11-28T01:27:53.189Z,-4.19
2018-11-28T01:28:53.166Z,-4.22
2018-11-28T01:29:53.169Z,-4.26
2018-11-28T01:30:53.146Z,-4.19
2018-11-28T01:31:53.140Z,-4.28
2018-11-28T01:32:53.127Z,-4.28
2018-11-28T01:33:53.116Z,-4.22
2018-11-28T01:34:53.138Z,-4.25
2018-11-28T01:35:53.092Z,-4.28
2018-11-28T01:36:53.082Z,-4.15
2018-11-28T01:37:53.078Z,-4.32
2018-11-28T01:38:53.061Z,-4.23
2018-11-28T01:39:53.048Z,-4.32
2018-11-28T01:40:53.050Z,-4.29
2018-11-28T01:41:53.060Z,-4.29
2018-11-28T01:42:53.020Z,-4.26
2018-11-28T01:43:53.015Z,-4.26
2018-11-28T01:44:52.996Z,-4.28
2018-11-28T01:45:52.984Z,-4.33
2018-11-28T01:46:52.976Z,-4.30
2018-11-28T01:47:52.989Z,-4.26
2018-11-28T01:48:52.953Z,-4.25
2018-11-28T01:49:52.948Z,-4.20
2018-11-28T01:50:52.931Z,-4.29
2018-11-28T01:51:52.920Z,-4.36
2018-11-28T01:52:52.909Z,-4.33
2018-11-28T01:53:52.912Z,-4.38
2018-11-28T01:54:52.888Z,-4.28
2018-11-28T01:55:52.888Z,-4.28
2018-11-28T01:56:52.866Z,-4.25
2018-11-28T01:57:52.905Z,-4.30
2018-11-28T01:58:52.846Z,-4.29
2018-11-28T01:59:52.833Z,-4.32
2018-11-28T02:00:52.823Z,-4.28
2018-11-28T02:01:52.818Z,-4.29
2018-11-28T02:02:52.800Z,-4.29
2018-11-28T02:03:52.823Z,-4.28
2018-11-28T02:04:52.780Z,-4.20
2018-11-28T02:05:52.771Z,-4.18
2018-11-28T02:06:52.759Z,-4.22
2018-11-28T02:07:52.754Z,-4.22
2018-11-28T02:08:52.737Z,-4.23
2018-11-28T02:09:52.738Z,-4.29
2018-11-28T02:10:52.728Z,-4.40
2018-11-28T02:11:52.710Z,-4.32
2018-11-28T02:12:52.692Z,-4.33
2018-11-28T02:13:52.687Z,-4.37
2018-11-28T02:14:52.671Z,-4.38
2018-11-28T02:15:52.696Z,-4.46
2018-11-28T02:16:52.651Z,-4.50
2018-11-28T02:17:52.639Z,-4.48
2018-11-28T02:18:52.629Z,-4.44
2018-11-28T02:19:52.624Z,-4.48
2018-11-28T02:20:52.607Z,-4.51
2018-11-28T02:21:52.628Z,-4.50
2018-11-28T02:22:52.588Z,-4.51
2018-11-28T02:23:52.575Z,-4.48
2018-11-28T02:24:52.566Z,-4.54
2018-11-28T02:25:52.562Z,-4.48
2018-11-28T02:26:52.547Z,-4.47
2018-11-28T02:27:52.543Z,-4.47
2018-11-28T02:28:52.521Z,-4.47
2018-11-28T02:29:52.511Z,-4.44
2018-11-28T02:30:52.500Z,-4.40
2018-11-28T02:31:52.534Z,-4.36
2018-11-28T02:32:52.480Z,-4.40
2018-11-28T02:33:52.468Z,-4.43
2018-11-28T02:34:52.456Z,-4.37
2018-11-28T02:35:52.446Z,-4.40
2018-11-28T02:36:52.442Z,-4.37
2018-11-28T02:37:52.448Z,-4.44
2018-11-28T02:38:52.459Z,-4.37
2018-11-28T02:39:52.403Z,-4.40
2018-11-28T02:40:52.393Z,-4.44
2018-11-28T02:41:52.382Z,-4.44
2018-11-28T02:42:52.371Z,-4.40
2018-11-28T02:43:52.363Z,-4.44
2018-11-28T02:44:52.382Z,-4.46
2018-11-28T02:45:52.341Z,-4.47
2018-11-28T02:46:52.335Z,-4.54
2018-11-28T02:47:52.317Z,-4.46
2018-11-28T02:48:52.306Z,-4.47
2018-11-28T02:49:52.305Z,-4.48
2018-11-28T02:50:52.295Z,-4.48
2018-11-28T02:51:52.273Z,-4.66
2018-11-28T02:52:52.267Z,-4.64
2018-11-28T02:53:52.251Z,-4.61
2018-11-28T02:54:52.241Z,-4.64
2018-11-28T02:55:52.251Z,-4.65
2018-11-28T02:56:52.232Z,-4.54
2018-11-28T02:57:52.209Z,-4.51
2018-11-28T02:58:52.197Z,-4.47
2018-11-28T02:59:52.187Z,-4.40
2018-11-28T03:00:52.177Z,-4.41
2018-11-28T03:01:52.214Z,-4.43
2018-11-28T03:02:52.159Z,-4.40
2018-11-28T03:03:52.144Z,-4.28
2018-11-28T03:04:52.132Z,-4.32
2018-11-28T03:05:52.122Z,-4.33
2018-11-28T03:06:52.112Z,-4.37
2018-11-28T03:07:52.129Z,-4.28
2018-11-28T03:08:52.090Z,-4.33
2018-11-28T03:09:52.081Z,-4.28
2018-11-28T03:10:52.082Z,-4.30
2018-11-28T03:11:52.058Z,-4.38
2018-11-28T03:12:52.049Z,-4.30
2018-11-28T03:13:52.045Z,-4.37
2018-11-28T03:14:52.068Z,-4.37
2018-11-28T03:15:52.016Z,-4.40
2018-11-28T03:16:52.008Z,-4.46
2018-11-28T03:17:51.995Z,-4.48
2018-11-28T03:18:51.984Z,-4.62
2018-11-28T03:19:51.978Z,-4.62
2018-11-28T03:20:51.975Z,-4.61
2018-11-28T03:21:51.952Z,-4.59
2018-11-28T03:22:51.943Z,-4.66
2018-11-28T03:23:51.928Z,-4.68
2018-11-28T03:24:51.917Z,-4.64
2018-11-28T03:25:51.942Z,-4.62
2018-11-28T03:26:51.897Z,-4.62
2018-11-28T03:27:51.886Z,-4.65
2018-11-28T03:28:51.875Z,-4.54
2018-11-28T03:29:51.866Z,-4.50
2018-11-28T03:30:51.853Z,-4.48
2018-11-28T03:31:51.868Z,-4.51
2018-11-28T03:32:51.832Z,-4.48
2018-11-28T03:33:51.820Z,-4.54
2018-11-28T03:34:51.810Z,-4.62
2018-11-28T03:35:51.800Z,-4.58
2018-11-28T03:36:51.828Z,-4.69
2018-11-28T03:37:51.790Z,-4.64
2018-11-28T03:38:51.767Z,-4.75
2018-11-28T03:39:51.758Z,-4.68
2018-11-28T03:40:51.748Z,-4.71
2018-11-28T03:41:51.736Z,-4.62
2018-11-28T03:42:51.736Z,-4.64
2018-11-28T03:43:51.763Z,-4.59
2018-11-28T03:44:51.703Z,-4.62
2018-11-28T03:45:51.693Z,-4.61
2018-11-28T03:46:51.680Z,-4.59
2018-11-28T03:47:51.669Z,-4.59
2018-11-28T03:48:51.663Z,-4.61
2018-11-28T03:49:51.685Z,-4.61
2018-11-28T03:50:51.639Z,-4.58
2018-11-28T03:51:51.627Z,-4.47
2018-11-28T03:52:51.618Z,-4.55
2018-11-28T03:53:51.606Z,-4.51
2018-11-28T03:54:51.602Z,-4.50
2018-11-28T03:55:51.616Z,-4.47
2018-11-28T03:56:51.573Z,-4.55
2018-11-28T03:57:51.564Z,-4.51
2018-11-28T03:58:51.554Z,-4.50
2018-11-28T03:59:51.542Z,-4.58
2018-11-28T04:00:51.531Z,-4.51
2018-11-28T04:01:51.552Z,-4.47
2018-11-28T04:02:51.511Z,-4.47
2018-11-28T04:03:51.499Z,-4.46
2018-11-28T04:04:51.489Z,-4.47
2018-11-28T04:05:51.480Z,-4.46
2018-11-28T04:06:51.467Z,-4.38
2018-11-28T04:07:51.495Z,-4.41
2018-11-28T04:08:51.446Z,-4.38
2018-11-28T04:09:51.435Z,-4.40
2018-11-28T04:10:51.424Z,-4.29
2018-11-28T04:11:51.414Z,-4.41
2018-11-28T04:12:51.401Z,-4.36
2018-11-28T04:13:51.414Z,-4.37
2018-11-28T04:14:51.403Z,-4.38
2018-11-28T04:15:51.369Z,-4.29
2018-11-28T04:16:51.359Z,-4.38
2018-11-28T04:17:51.348Z,-4.36
2018-11-28T04:18:51.338Z,-4.36
2018-11-28T04:19:51.336Z,-4.32
2018-11-28T04:20:51.339Z,-4.32
2018-11-28T04:21:51.306Z,-4.32
2018-11-28T04:22:51.301Z,-4.26
2018-11-28T04:23:51.285Z,-4.22
2018-11-28T04:24:51.274Z,-4.23
2018-11-28T04:25:51.273Z,-4.26
2018-11-28T04:26:51.267Z,-4.19
2018-11-28T04:27:51.242Z,-4.23
2018-11-28T04:28:51.231Z,-4.25
2018-11-28T04:29:51.220Z,-4.32
2018-11-28T04:30:51.209Z,-4.28
2018-11-28T04:31:51.237Z,-4.29
2018-11-28T04:32:51.194Z,-4.29
2018-11-28T04:33:51.177Z,-4.32
2018-11-28T04:34:51.166Z,-4.26
2018-11-28T04:35:51.155Z,-4.36
2018-11-28T04:36:51.143Z,-4.37
2018-11-28T04:37:51.155Z,-4.32
2018-11-28T04:38:51.124Z,-4.29
2018-11-28T04:39:51.112Z,-4.41
2018-11-28T04:40:51.104Z,-4.26
2018-11-28T04:41:51.106Z,-4.38
2018-11-28T04:42:51.082Z,-4.40
2018-11-28T04:43:51.077Z,-4.33
2018-11-28T04:44:51.060Z,-4.43
2018-11-28T04:45:51.048Z,-4.50
2018-11-28T04:46:51.068Z,-4.47
2018-11-28T04:47:51.026Z,-4.41
2018-11-28T04:48:51.017Z,-4.47
2018-11-28T04:49:51.013Z,-4.48
2018-11-28T04:50:50.996Z,-4.43
2018-11-28T04:51:50.985Z,-4.47
2018-11-28T04:52:51.015Z,-4.48
2018-11-28T04:53:50.962Z,-4.54
2018-11-28T04:54:50.957Z,-4.61
2018-11-28T04:55:50.950Z,-4.62
2018-11-28T04:56:50.929Z,-4.66
2018-11-28T04:57:50.918Z,-4.57
2018-11-28T04:58:50.920Z,-4.48
2018-11-28T04:59:50.922Z,-4.54
2018-11-28T05:00:50.890Z,-4.48
2018-11-28T05:01:50.881Z,-4.57
2018-11-28T05:02:50.864Z,-4.64
2018-11-28T05:03:50.855Z,-4.61
2018-11-28T05:04:50.844Z,-4.68
2018-11-28T05:05:50.845Z,-4.51
2018-11-28T05:06:50.822Z,-4.50
2018-11-28T05:07:50.820Z,-4.54
2018-11-28T05:08:50.838Z,-4.61
2018-11-28T05:09:50.791Z,-4.57
2018-11-28T05:10:50.780Z,-4.58
2018-11-28T05:11:50.769Z,-4.62
2018-11-28T05:12:50.765Z,-4.55
2018-11-28T05:13:50.753Z,-4.62
2018-11-28T05:14:50.749Z,-4.61
2018-11-28T05:15:50.739Z,-4.61
2018-11-28T05:16:50.715Z,-4.61
2018-11-28T05:17:50.704Z,-4.59
2018-11-28T05:18:50.695Z,-4.61
2018-11-28T05:19:50.689Z,-4.58
2018-11-28T05:20:50.703Z,-4.64
2018-11-28T05:21:50.661Z,-4.59
2018-11-28T05:22:50.650Z,-4.66
2018-11-28T05:23:50.642Z,-4.68
2018-11-28T05:24:50.630Z,-4.66
2018-11-28T05:25:50.625Z,-4.65
2018-11-28T05:26:50.651Z,-4.73
2018-11-28T05:27:50.598Z,-4.68
2018-11-28T05:28:50.586Z,-4.59
2018-11-28T05:29:50.575Z,-4.66
2018-11-28T05:30:50.565Z,-4.69
2018-11-28T05:31:50.561Z,-4.71
2018-11-28T05:32:50.576Z,-4.73
2018-11-28T05:33:50.533Z,-4.76
2018-11-28T05:34:50.523Z,-4.80
2018-11-28T05:35:50.513Z,-4.83
2018-11-28T05:36:50.500Z,-4.94
2018-11-28T05:37:50.498Z,-4.85
2018-11-28T05:38:50.516Z,-4.95
2018-11-28T05:39:50.470Z,-4.93
2018-11-28T05:40:50.458Z,-4.95
2018-11-28T05:41:50.446Z,-4.97
2018-11-28T05:42:50.441Z,-5.07
2018-11-28T05:43:50.434Z,-5.07
2018-11-28T05:44:50.447Z,-5.14
2018-11-28T05:45:50.404Z,-5.07
2018-11-28T05:46:50.393Z,-5.16
2018-11-28T05:47:50.385Z,-5.08
2018-11-28T05:48:50.370Z,-5.14
2018-11-28T05:49:50.375Z,-5.14
2018-11-28T05:50:50.383Z,-5.16
2018-11-28T05:51:50.340Z,-5.11
2018-11-28T05:52:50.329Z,-5.19
2018-11-28T05:53:50.317Z,-5.17
2018-11-28T05:54:50.306Z,-5.11
2018-11-28T05:55:50.304Z,-5.20
2018-11-28T05:56:50.308Z,-5.05
2018-11-28T05:57:50.278Z,-5.16
2018-11-28T05:58:50.266Z,-5.11
2018-11-28T05:59:50.253Z,-5.01
2018-11-28T06:00:50.243Z,-5.01
2018-11-28T06:01:50.240Z,-4.98
2018-11-28T06:02:50.233Z,-5.05
2018-11-28T06:03:50.209Z,-5.00
2018-11-28T06:04:50.199Z,-5.08
2018-11-28T06:05:50.188Z,-5.04
2018-11-28T06:06:50.212Z,-5.04
2018-11-28T06:07:50.176Z,-5.11
2018-11-28T06:08:50.157Z,-5.08
2018-11-28T06:09:50.145Z,-4.94
2018-11-28T06:10:50.134Z,-4.94
2018-11-28T06:11:50.124Z,-4.95
2018-11-28T06:12:50.136Z,-4.93
2018-11-28T06:13:50.109Z,-4.93
2018-11-28T06:14:50.091Z,-4.83
2018-11-28T06:15:50.079Z,-4.83
2018-11-28T06:16:50.071Z,-4.80
2018-11-28T06:17:50.059Z,-4.79
2018-11-28T06:18:50.062Z,-4.82
2018-11-28T06:19:50.055Z,-4.71
2018-11-28T06:20:50.027Z,-4.77
2018-11-28T06:21:50.016Z,-4.65
2018-11-28T06:22:50.007Z,-4.66
2018-11-28T06:23:49.994Z,-4.69
2018-11-28T06:24:49.999Z,-4.71
2018-11-28T06:25:49.981Z,-4.66
2018-11-28T06:26:49.962Z,-4.59
2018-11-28T06:27:49.952Z,-4.59
2018-11-28T06:28:49.963Z,-4.58
2018-11-28T06:29:49.930Z,-4.47
2018-11-28T06:30:49.919Z,-4.61
2018-11-28T06:31:49.916Z,-4.44
2018-11-28T06:32:51.517Z,-4.47
2018-11-28T06:33:49.887Z,-4.41
2018-11-28T06:34:49.915Z,-4.46
2018-11-28T06:35:49.865Z,-4.40
2018-11-28T06:36:49.855Z,-4.38
2018-11-28T06:37:49.848Z,-4.38
2018-11-28T06:38:49.834Z,-4.40
2018-11-28T06:39:49.823Z,-4.41
2018-11-28T06:40:49.823Z,-4.32
2018-11-28T06:41:49.800Z,-4.40
2018-11-28T06:42:49.798Z,-4.32
2018-11-28T06:43:49.788Z,-4.33
2018-11-28T06:44:49.770Z,-4.32
2018-11-28T06:45:49.782Z,-4.38
2018-11-28T06:46:49.749Z,-4.37
2018-11-28T06:47:49.736Z,-4.38
2018-11-28T06:48:49.726Z,-4.37
2018-11-28T06:49:49.761Z,-4.30
2018-11-28T06:50:49.705Z,-4.32
2018-11-28T06:51:49.726Z,-4.38
2018-11-28T06:52:49.696Z,-4.40
2018-11-28T06:53:49.674Z,-4.36
2018-11-28T06:54:49.661Z,-4.37
2018-11-28T06:55:49.658Z,-4.40
2018-11-28T06:56:49.639Z,-4.30
2018-11-28T06:57:49.641Z,-4.33
2018-11-28T06:58:49.616Z,-4.38
2018-11-28T06:59:49.607Z,-4.32
2018-11-28T07:00:49.596Z,-4.28
2018-11-28T07:01:49.613Z,-4.38
2018-11-28T07:02:49.576Z,-4.36
2018-11-28T07:03:49.564Z,-4.36
2018-11-28T07:04:49.554Z,-4.36
2018-11-28T07:05:49.541Z,-4.41
2018-11-28T07:06:49.530Z,-4.29
2018-11-28T07:07:49.542Z,-4.29
2018-11-28T07:08:49.511Z,-4.29
2018-11-28T07:09:49.499Z,-4.33
2018-11-28T07:10:49.490Z,-4.36
2018-11-28T07:11:49.502Z,-4.20
2018-11-28T07:12:49.471Z,-4.26
2018-11-28T07:13:49.464Z,-4.29
2018-11-28T07:14:49.447Z,-4.23
2018-11-28T07:15:49.435Z,-4.15
2018-11-28T07:16:49.424Z,-4.22
2018-11-28T07:17:49.445Z,-4.12
2018-11-28T07:18:49.403Z,-4.07
2018-11-28T07:19:49.404Z,-4.07
2018-11-28T07:20:49.381Z,-4.02
2018-11-28T07:21:49.370Z,-4.08
2018-11-28T07:22:49.359Z,-4.02
2018-11-28T07:23:49.379Z,-3.93
2018-11-28T07:24:49.344Z,-3.96
2018-11-28T07:25:49.337Z,-3.96
2018-11-28T07:26:49.317Z,-4.04
2018-11-28T07:27:49.307Z,-3.98
2018-11-28T07:28:49.295Z,-3.96
2018-11-28T07:29:49.323Z,-3.90
2018-11-28T07:30:49.274Z,-3.84
2018-11-28T07:31:49.275Z,-3.91
2018-11-28T07:32:49.251Z,-3.93
2018-11-28T07:33:49.243Z,-3.89
2018-11-28T07:34:49.231Z,-3.89
2018-11-28T07:35:49.269Z,-3.86
2018-11-28T07:36:49.210Z,-3.94
2018-11-28T07:37:49.209Z,-3.90
2018-11-28T07:38:49.187Z,-3.91
2018-11-28T07:39:49.176Z,-3.94
2018-11-28T07:40:49.167Z,-3.90
2018-11-28T07:41:49.177Z,-3.87
2018-11-28T07:42:49.144Z,-3.87
2018-11-28T07:43:49.147Z,-3.89
2018-11-28T07:44:49.124Z,-3.96
2018-11-28T07:45:49.111Z,-3.86
2018-11-28T07:46:49.113Z,-3.90
2018-11-28T07:47:49.109Z,-3.87
2018-11-28T07:48:49.080Z,-3.91
2018-11-28T07:49:49.079Z,-3.89
2018-11-28T07:50:49.059Z,-3.68
2018-11-28T07:51:49.048Z,-3.86
2018-11-28T07:52:49.038Z,-3.78
2018-11-28T07:53:49.039Z,-3.81
2018-11-28T07:54:49.016Z,-3.72
2018-11-28T07:55:49.014Z,-3.71
2018-11-28T07:56:48.997Z,-3.75
2018-11-28T07:57:48.997Z,-3.67
2018-11-28T07:58:48.980Z,-3.71
2018-11-28T07:59:48.963Z,-3.72
2018-11-28T08:00:48.950Z,-3.72
2018-11-28T08:01:48.946Z,-3.68
2018-11-28T08:02:48.950Z,-3.61
2018-11-28T08:03:48.919Z,-3.64
2018-11-28T08:04:48.905Z,-3.60
2018-11-28T08:05:48.896Z,-3.60
2018-11-28T08:06:48.886Z,-3.50
2018-11-28T08:07:48.882Z,-3.60
2018-11-28T08:08:48.876Z,-3.46
2018-11-28T08:09:48.851Z,-3.50
2018-11-28T08:10:48.841Z,-3.51
2018-11-28T08:11:48.831Z,-3.46
2018-11-28T08:12:48.819Z,-3.47
2018-11-28T08:13:48.843Z,-3.49
2018-11-28T08:14:48.798Z,-3.39
2018-11-28T08:15:48.806Z,-3.26
2018-11-28T08:16:48.776Z,-3.39
2018-11-28T08:17:48.765Z,-3.26
2018-11-28T08:18:48.755Z,-3.25
2018-11-28T08:19:48.761Z,-3.20
2018-11-28T08:20:48.763Z,-3.25
2018-11-28T08:21:48.721Z,-3.05
2018-11-28T08:22:48.710Z,-3.20
2018-11-28T08:23:48.698Z,-3.20
2018-11-28T08:24:48.688Z,-3.15
2018-11-28T08:25:48.683Z,-3.08
2018-11-28T08:26:48.678Z,-3.13
2018-11-28T08:27:48.654Z,-3.00
2018-11-28T08:28:48.643Z,-2.96
2018-11-28T08:29:48.634Z,-2.93
2018-11-28T08:30:48.630Z,-2.85
2018-11-28T08:32:17.442Z,-2.82
2018-11-28T08:34:43.692Z,-2.69
2018-11-28T08:35:02.329Z,-2.68
2018-11-28T08:36:02.316Z,-2.68
2018-11-28T08:37:02.293Z,-2.66
2018-11-28T08:38:02.304Z,-2.61
2018-11-28T08:39:02.274Z,-2.57
2018-11-28T08:40:02.262Z,-2.66
2018-11-28T08:41:02.273Z,-2.66
2018-11-28T08:42:02.240Z,-2.60
2018-11-28T08:43:02.231Z,-2.61
2018-11-28T08:44:02.232Z,-2.61
2018-11-28T08:45:02.218Z,-2.58
2018-11-28T08:46:02.225Z,-2.58
2018-11-28T08:47:02.186Z,-2.58
2018-11-28T08:48:02.176Z,-2.54
2018-11-28T08:49:02.170Z,-2.40
2018-11-28T08:50:02.157Z,-2.47
2018-11-28T08:51:02.158Z,-2.53
2018-11-28T08:52:02.141Z,-2.40
2018-11-28T08:53:02.123Z,-2.40
2018-11-28T08:54:02.112Z,-2.43
2018-11-28T08:55:02.102Z,-2.35
2018-11-28T08:56:02.231Z,-2.26
2018-11-28T08:57:02.080Z,-2.24
2018-11-28T08:58:02.079Z,-2.24
2018-11-28T08:59:02.059Z,-2.08
2018-11-28T09:00:02.048Z,-2.02
2018-11-28T09:01:02.037Z,-1.99
2018-11-28T09:02:02.072Z,-1.93
2018-11-28T09:03:02.013Z,-1.92
2018-11-28T09:04:02.011Z,-1.87
2018-11-28T09:05:01.994Z,-1.78
2018-11-28T09:06:01.983Z,-1.74
2018-11-28T09:07:01.973Z,-1.74
2018-11-28T09:08:01.986Z,-1.80
2018-11-28T09:09:01.954Z,-1.67
2018-11-28T09:10:02.167Z,-1.57
2018-11-28T09:11:01.927Z,-1.62
2018-11-28T09:12:01.917Z,-1.51
2018-11-28T09:13:04.356Z,-1.43
2018-11-28T09:14:04.409Z,-1.51
2018-11-28T09:15:01.886Z,-1.49
2018-11-28T09:16:01.888Z,-1.54
2018-11-28T09:17:01.865Z,-1.39
2018-11-28T09:18:01.852Z,-1.43
2018-11-28T09:19:01.858Z,-1.36
2018-11-28T09:20:01.833Z,-1.45
2018-11-28T09:21:01.821Z,-1.36
2018-11-28T09:22:01.817Z,-1.42
2018-11-28T09:23:01.799Z,-1.38
2018-11-28T09:24:01.800Z,-1.27
2018-11-28T09:25:01.776Z,-1.31
2018-11-28T09:26:01.802Z,-1.30
2018-11-28T09:27:01.754Z,-1.33
2018-11-28T09:28:01.750Z,-1.24
2018-11-28T09:29:01.733Z,-1.18
2018-11-28T09:30:01.723Z,-1.13
2018-11-28T09:31:01.714Z,-1.15
2018-11-28T09:32:01.719Z,-1.15
2018-11-28T09:33:01.699Z,-1.09
2018-11-28T09:34:01.690Z,-1.06
2018-11-28T09:35:01.670Z,-0.99
2018-11-28T09:36:01.660Z,-0.95
2018-11-28T09:37:01.659Z,-0.92
2018-11-28T09:38:01.637Z,-0.89
2018-11-28T09:39:01.625Z,-0.97
2018-11-28T09:40:01.622Z,-0.87
2018-11-28T09:41:01.616Z,-0.87
2018-11-28T09:42:01.598Z,-0.95
2018-11-28T09:43:01.583Z,-0.83
2018-11-28T09:44:01.585Z,-0.89
2018-11-28T09:45:01.561Z,-0.77
2018-11-28T09:46:01.558Z,-0.77
2018-11-28T09:47:01.538Z,-0.72
2018-11-28T09:48:01.558Z,-0.70
2018-11-28T09:49:01.518Z,-0.70
2018-11-28T09:50:01.507Z,-0.73
2018-11-28T09:51:01.496Z,-0.69
2018-11-28T09:52:01.491Z,-0.60
2018-11-28T09:53:01.473Z,-0.60
2018-11-28T09:54:01.486Z,-0.62
2018-11-28T09:55:01.451Z,-0.65
2018-11-28T09:56:01.442Z,-0.62
2018-11-28T09:57:01.432Z,-0.66
2018-11-28T09:58:01.427Z,-0.59
2018-11-28T09:59:01.407Z,-0.55
2018-11-28T10:00:01.420Z,-0.55
2018-11-28T10:01:01.387Z,-0.48
2018-11-28T10:02:01.374Z,-0.48
2018-11-28T10:03:01.364Z,-0.48
2018-11-28T10:04:01.360Z,-0.45
2018-11-28T10:05:03.046Z,-0.41
2018-11-28T10:06:01.345Z,-0.50
2018-11-28T10:07:01.322Z,-0.41
2018-11-28T10:08:01.311Z,-0.36
2018-11-28T10:09:01.301Z,-0.33
2018-11-28T10:10:01.294Z,-0.37
2018-11-28T10:11:01.290Z,-0.34
2018-11-28T10:12:01.267Z,-0.41
2018-11-28T10:13:01.260Z,-0.29
2018-11-28T10:14:01.246Z,-0.36
2018-11-28T10:15:01.236Z,-0.26
2018-11-28T10:16:01.903Z,-0.24
2018-11-28T10:17:01.217Z,-0.19
2018-11-28T10:18:01.203Z,-0.18
2018-11-28T10:19:01.192Z,-0.23
2018-11-28T10:20:01.184Z,-0.23
2018-11-28T10:21:01.190Z,-0.16
2018-11-28T10:22:01.167Z,-0.11
2018-11-28T10:23:01.149Z,-0.16
2018-11-28T10:24:01.138Z,-0.15
2018-11-28T10:25:01.126Z,0.02
2018-11-28T10:26:01.119Z,-0.11
2018-11-28T10:27:01.118Z,0.03
2018-11-28T10:28:01.105Z,0.10
2018-11-28T10:29:01.155Z,0.05
2018-11-28T10:30:01.075Z,0.07
2018-11-28T10:31:01.061Z,0.07
2018-11-28T10:32:01.052Z,0.21
2018-11-28T10:33:01.039Z,0.16
2018-11-28T10:34:01.044Z,0.28
2018-11-28T10:35:01.031Z,0.36
2018-11-28T10:36:01.008Z,0.30
2018-11-28T10:37:01.000Z,0.31
2018-11-28T10:38:01.021Z,0.31
2018-11-28T10:39:00.975Z,0.31
2018-11-28T10:40:00.976Z,0.33
2018-11-28T10:41:00.954Z,0.30
2018-11-28T10:42:00.943Z,0.33
2018-11-28T10:43:00.931Z,0.33
2018-11-28T10:44:00.934Z,0.41
2018-11-28T10:45:00.920Z,0.41
2018-11-28T10:46:00.906Z,0.42
2018-11-28T10:47:00.887Z,0.42
2018-11-28T10:48:00.877Z,0.43
2018-11-28T10:49:00.877Z,0.36
2018-11-28T10:50:00.859Z,0.30
2018-11-28T10:51:00.844Z,0.41
2018-11-28T10:52:00.838Z,0.28
2018-11-28T10:53:00.824Z,0.39
2018-11-28T10:54:00.823Z,0.39
2018-11-28T10:55:00.800Z,0.42
2018-11-28T10:56:00.850Z,0.42
2018-11-28T10:57:00.777Z,0.38
2018-11-28T10:58:00.779Z,0.41
2018-11-28T10:59:00.772Z,0.46
2018-11-28T11:00:00.746Z,0.45
2018-11-28T11:01:00.748Z,0.43
2018-11-28T11:02:00.725Z,0.52
2018-11-28T11:03:00.719Z,0.62
2018-11-28T11:04:00.711Z,0.68
2018-11-28T11:05:00.704Z,0.61
2018-11-28T11:06:00.679Z,0.68
2018-11-28T11:07:00.669Z,0.80
2018-11-28T11:08:00.659Z,0.70
2018-11-28T11:09:00.646Z,0.62
2018-11-28T11:10:00.656Z,0.76
2018-11-28T11:11:00.624Z,0.76
2018-11-28T11:12:00.615Z,0.70
2018-11-28T11:13:00.603Z,0.71
2018-11-28T11:14:00.596Z,0.76
2018-11-28T11:15:00.594Z,0.70
2018-11-28T11:16:00.579Z,0.72
2018-11-28T11:17:00.562Z,0.78
2018-11-28T11:18:02.200Z,0.78
2018-11-28T11:19:00.541Z,0.75
2018-11-28T11:20:00.559Z,0.86
2018-11-28T11:21:00.518Z,0.79
2018-11-28T11:22:00.514Z,0.78
2018-11-28T11:23:00.495Z,0.79
2018-11-28T11:24:00.486Z,0.85
2018-11-28T11:25:00.472Z,0.82
2018-11-28T11:26:00.492Z,0.78
2018-11-28T11:27:00.450Z,0.88
2018-11-28T11:28:00.450Z,0.86
2018-11-28T11:29:00.428Z,0.97
2018-11-28T11:30:00.417Z,0.96
2018-11-28T11:31:00.409Z,0.94
2018-11-28T11:32:00.407Z,1.01
2018-11-28T11:33:00.385Z,0.96
2018-11-28T11:34:00.382Z,0.96
2018-11-28T11:35:00.412Z,1.03
2018-11-28T11:36:00.351Z,0.97
2018-11-28T11:37:00.352Z,1.04
2018-11-28T11:38:00.329Z,1.01
2018-11-28T11:39:00.351Z,0.94
2018-11-28T11:40:00.317Z,1.03
2018-11-28T11:41:00.296Z,0.94
2018-11-28T11:42:00.284Z,0.94
2018-11-28T11:43:00.276Z,0.94
2018-11-28T11:44:00.267Z,0.94
2018-11-28T11:45:00.263Z,1.00
2018-11-28T11:46:00.245Z,0.94
2018-11-28T11:47:00.234Z,0.96
2018-11-28T11:48:00.242Z,0.97
2018-11-28T11:49:01.638Z,1.03
2018-11-28T11:50:00.199Z,0.96
2018-11-28T11:51:00.228Z,0.98
2018-11-28T11:52:00.185Z,0.98
2018-11-28T11:53:00.165Z,1.03
2018-11-28T11:54:00.168Z,1.06
2018-11-28T11:55:00.142Z,1.04
2018-11-28T11:56:00.146Z,1.14
2018-11-28T11:57:00.120Z,1.10
2018-11-28T11:58:00.118Z,1.22
2018-11-28T11:59:00.099Z,1.21
2018-11-28T12:00:00.088Z,1.25
2018-11-28T12:01:00.455Z,1.22
2018-11-28T12:02:00.066Z,1.29
2018-11-28T12:03:00.055Z,1.34
2018-11-28T12:04:00.051Z,1.39
2018-11-28T12:05:00.036Z,1.39
2018-11-28T12:06:00.024Z,1.36
2018-11-28T12:07:00.023Z,1.43
2018-11-28T12:08:00.000Z,1.43
2018-11-28T12:08:59.988Z,1.40
2018-11-28T12:09:59.984Z,1.36
2018-11-28T12:10:59.970Z,1.50
2018-11-28T12:11:59.989Z,1.54
2018-11-28T12:12:59.945Z,1.37
2018-11-28T12:13:59.934Z,1.37
2018-11-28T12:14:59.924Z,1.43
2018-11-28T12:15:59.919Z,1.40
2018-11-28T12:16:59.902Z,1.36
2018-11-28T12:17:59.901Z,1.43
2018-11-28T12:18:59.950Z,1.39
2018-11-28T12:19:59.870Z,1.40
2018-11-28T12:20:59.859Z,1.37
2018-11-28T12:21:59.856Z,1.37
2018-11-28T12:22:59.875Z,1.36
2018-11-28T12:23:59.824Z,1.40
2018-11-28T12:24:59.813Z,1.40
2018-11-28T12:25:59.803Z,1.40
2018-11-28T12:27:00.123Z,1.37
2018-11-28T12:27:59.785Z,1.39
2018-11-28T12:28:59.783Z,1.28
2018-11-28T12:29:59.758Z,1.32
2018-11-28T12:30:59.748Z,1.33
2018-11-28T12:31:59.743Z,1.33
2018-11-28T12:32:59.727Z,1.39
2018-11-28T12:33:59.768Z,1.33
2018-11-28T12:34:59.705Z,1.37
2018-11-28T12:35:59.692Z,1.37
2018-11-28T12:36:59.682Z,1.34
2018-11-28T12:37:59.675Z,1.44
2018-11-28T12:38:59.660Z,1.44
2018-11-28T12:39:59.669Z,1.47
2018-11-28T12:40:59.639Z,1.51
2018-11-28T12:41:59.628Z,1.43
2018-11-28T12:42:59.616Z,1.46
2018-11-28T12:43:59.606Z,1.50
2018-11-28T12:44:59.640Z,1.60
2018-11-28T12:45:59.598Z,1.57
2018-11-28T12:46:59.574Z,1.55
2018-11-28T12:47:59.562Z,1.58
2018-11-28T12:48:59.552Z,1.72
2018-11-28T12:49:59.541Z,1.65
2018-11-28T12:50:59.542Z,1.73
2018-11-28T12:51:59.526Z,1.78
2018-11-28T12:52:59.509Z,1.76
2018-11-28T12:53:59.498Z,1.82
2018-11-28T12:54:59.534Z,1.79
2018-11-28T12:55:59.474Z,1.79
2018-11-28T12:56:59.466Z,1.71
2018-11-28T12:57:59.459Z,1.80
2018-11-28T12:58:59.442Z,1.76